Time;durP1;ratioP1;P1;durP2;ratioP2;P2;SDS_P1;SDS_P2;PMS_P1;PMS_P2;Temp;Humidity;BMP_temperature;BMP_pressure;BME280_temperature;BME280_humidity;BME280_pressure;Samples;Min_cycle;Max_cycle;Signal;HPM_P1;HPM_P2
2022/04/23 00:01:54;;;;;;;5.12;1.40;;;8.80;99.90;;;;;;4427859;32;20513;-68
2022/04/23 00:04:20;;;;;;;0.45;0.45;;;8.80;99.90;;;;;;4425406;32;20484;-68
2022/04/23 00:06:45;;;;;;;1.50;0.68;;;8.80;99.90;;;;;;4429624;32;20086;-68
2022/04/23 00:09:11;;;;;;;0.55;0.55;;;8.80;99.90;;;;;;4429196;32;20089;-68
2022/04/23 00:11:37;;;;;;;0.50;0.50;;;8.80;99.90;;;;;;4427036;32;20061;-68
2022/04/23 00:14:04;;;;;;;1.08;0.90;;;8.80;99.90;;;;;;4428878;32;20077;-68
2022/04/23 00:16:30;;;;;;;0.77;0.77;;;8.80;99.90;;;;;;4427785;32;20578;-68
2022/04/23 00:18:56;;;;;;;0.50;0.50;;;8.80;99.90;;;;;;4431704;32;20540;-68
2022/04/23 00:21:22;;;;;;;0.60;0.60;;;8.80;99.90;;;;;;4432465;32;20065;-68
2022/04/23 00:23:48;;;;;;;21.08;1.98;;;8.70;99.90;;;;;;4431110;32;20077;-67
2022/04/23 00:26:13;;;;;;;2.12;0.95;;;8.70;99.90;;;;;;4430396;32;20302;-68
2022/04/23 00:28:39;;;;;;;0.57;0.50;;;8.70;99.90;;;;;;4429956;32;20124;-67
2022/04/23 00:31:05;;;;;;;1.40;1.27;;;8.70;99.90;;;;;;4427131;32;20750;-68
2022/04/23 00:33:37;;;;;;;0.50;0.50;;;8.60;99.90;;;;;;4426455;32;20572;-67
2022/04/23 00:36:04;;;;;;;1.62;0.77;;;8.60;99.90;;;;;;4430002;32;20664;-68
2022/04/23 00:38:29;;;;;;;0.73;0.73;;;8.60;99.90;;;;;;4429710;32;20421;-68
2022/04/23 00:40:55;;;;;;;0.40;0.40;;;8.60;99.90;;;;;;4429583;32;20070;-68
2022/04/23 00:43:30;;;;;;;0.70;0.70;;;8.50;99.90;;;;;;4426027;32;20081;-68
2022/04/23 00:45:57;;;;;;;0.70;0.70;;;8.50;99.90;;;;;;4429515;32;20522;-68
2022/04/23 00:48:24;;;;;;;0.80;0.80;;;8.50;99.90;;;;;;4431613;32;20495;-68
2022/04/23 00:50:51;;;;;;;1.08;1.05;;;8.50;99.90;;;;;;4426658;32;20057;-68
2022/04/23 00:53:19;;;;;;;0.85;0.85;;;8.40;99.90;;;;;;4426597;32;20057;-68
2022/04/23 00:55:46;;;;;;;0.52;0.52;;;8.40;99.90;;;;;;4428353;32;20094;-68
2022/04/23 00:58:12;;;;;;;1.17;0.98;;;8.50;99.90;;;;;;4429272;32;20062;-68
2022/04/23 01:00:40;;;;;;;1.23;1.12;;;8.40;99.90;;;;;;4429648;32;20064;-68
2022/04/23 01:03:06;;;;;;;0.60;0.60;;;8.40;99.90;;;;;;4425605;32;20123;-69
2022/04/23 01:05:32;;;;;;;0.80;0.80;;;8.30;99.90;;;;;;4434272;32;20065;-68
2022/04/23 01:08:00;;;;;;;1.60;0.98;;;8.30;99.90;;;;;;4428856;32;20405;-68
2022/04/23 01:10:26;;;;;;;0.75;0.75;;;8.30;99.90;;;;;;4427221;32;20065;-68
2022/04/23 01:12:53;;;;;;;3.45;0.90;;;8.30;99.90;;;;;;4424708;32;20461;-68
2022/04/23 01:15:21;;;;;;;1.05;0.80;;;8.30;99.90;;;;;;4428957;32;20070;-68
2022/04/23 01:17:47;;;;;;;1.70;0.90;;;8.30;99.90;;;;;;4428916;32;20539;-68
2022/04/23 01:20:14;;;;;;;0.62;0.62;;;8.30;99.90;;;;;;4430830;32;20160;-68
2022/04/23 01:22:41;;;;;;;3.12;1.33;;;8.30;99.90;;;;;;4429106;32;20070;-68
2022/04/23 01:25:10;;;;;;;1.12;0.77;;;8.30;99.90;;;;;;4429696;32;20088;-68
2022/04/23 01:27:37;;;;;;;1.12;1.02;;;8.20;99.90;;;;;;4426816;32;20069;-68
2022/04/23 01:30:04;;;;;;;0.52;0.52;;;8.20;99.90;;;;;;4426337;32;20108;-68
2022/04/23 01:32:30;;;;;;;0.40;0.40;;;8.20;99.90;;;;;;4426333;32;20061;-68
2022/04/23 01:34:55;;;;;;;0.50;0.50;;;8.10;99.90;;;;;;4433146;32;20108;-68
2022/04/23 01:37:21;;;;;;;1.25;0.95;;;8.10;99.90;;;;;;4433170;32;20093;-69
2022/04/23 01:39:47;;;;;;;1.62;1.15;;;8.10;99.90;;;;;;4433271;32;20418;-67
2022/04/23 01:42:13;;;;;;;1.80;0.95;;;8.10;99.90;;;;;;4429074;32;20074;-67
2022/04/23 01:44:39;;;;;;;0.45;0.45;;;8.10;99.90;;;;;;4431311;32;20419;-68
2022/04/23 01:47:06;;;;;;;1.37;1.08;;;8.00;99.90;;;;;;4431704;32;20053;-67
2022/04/23 01:49:31;;;;;;;0.47;0.47;;;8.10;99.90;;;;;;4432882;32;20073;-68
2022/04/23 01:51:57;;;;;;;0.85;0.80;;;8.00;99.90;;;;;;4431633;32;20398;-67
2022/04/23 01:54:23;;;;;;;3.15;1.10;;;8.00;99.90;;;;;;4431533;32;20130;-68
2022/04/23 01:56:48;;;;;;;3.37;1.73;;;8.00;99.90;;;;;;4432678;32;20085;-67
2022/04/23 01:59:14;;;;;;;0.70;0.70;;;8.00;99.90;;;;;;4433992;32;20077;-68
2022/04/23 02:01:41;;;;;;;3.30;1.42;;;8.00;99.90;;;;;;4432213;32;20187;-67
2022/04/23 02:04:07;;;;;;;0.82;0.82;;;8.00;99.90;;;;;;4430467;32;20068;-67
2022/04/23 02:06:33;;;;;;;0.62;0.62;;;8.00;99.90;;;;;;4432596;32;20131;-68
2022/04/23 02:09:00;;;;;;;0.50;0.50;;;8.00;99.90;;;;;;4430253;32;20060;-68
2022/04/23 02:11:26;;;;;;;1.30;1.02;;;7.90;99.90;;;;;;4431184;32;20470;-68
2022/04/23 02:13:51;;;;;;;0.70;0.70;;;8.00;99.90;;;;;;4431905;32;20074;-68
2022/04/23 02:16:17;;;;;;;0.70;0.70;;;7.90;99.90;;;;;;4433032;32;20085;-68
2022/04/23 02:18:42;;;;;;;4.05;1.08;;;7.90;99.90;;;;;;4432535;32;20119;-68
2022/04/23 02:21:08;;;;;;;0.62;0.62;;;7.90;99.90;;;;;;4430366;32;20073;-68
2022/04/23 02:23:33;;;;;;;0.43;0.43;;;7.90;99.90;;;;;;4430658;32;20089;-68
2022/04/23 02:25:59;;;;;;;0.75;0.75;;;7.80;99.90;;;;;;4431596;32;20538;-68
2022/04/23 02:28:24;;;;;;;2.25;1.00;;;7.80;99.90;;;;;;4433926;32;20090;-68
2022/04/23 02:30:50;;;;;;;0.65;0.65;;;7.90;99.90;;;;;;4429894;32;20120;-68
2022/04/23 02:33:15;;;;;;;0.57;0.57;;;7.80;99.90;;;;;;4429663;32;20086;-68
2022/04/23 02:35:41;;;;;;;1.75;1.23;;;7.80;99.90;;;;;;4431988;32;20061;-68
2022/04/23 02:38:07;;;;;;;0.85;0.55;;;7.80;99.90;;;;;;4431396;32;20414;-68
2022/04/23 02:40:34;;;;;;;1.17;0.85;;;7.70;99.90;;;;;;4433299;32;20636;-68
2022/04/23 02:43:03;;;;;;;1.45;1.12;;;7.70;99.90;;;;;;4429731;32;20061;-68
2022/04/23 02:45:28;;;;;;;0.70;0.70;;;7.60;99.90;;;;;;4429113;32;20081;-68
2022/04/23 02:47:55;;;;;;;3.25;1.37;;;7.60;99.90;;;;;;4431522;32;20164;-68
2022/04/23 02:50:26;;;;;;;0.40;0.40;;;7.60;99.90;;;;;;4432537;32;20069;-68
2022/04/23 02:52:52;;;;;;;;;;;7.50;99.90;;;;;;4428084;32;20165;-68
2022/04/23 02:55:18;;;;;;;0.40;0.40;;;7.60;99.90;;;;;;4433658;32;19981;-68
2022/04/23 02:57:43;;;;;;;1.85;0.88;;;7.50;99.90;;;;;;4430575;32;21513;-68
2022/04/23 03:00:10;;;;;;;1.17;0.77;;;7.50;99.90;;;;;;4432127;32;20081;-68
2022/04/23 03:02:37;;;;;;;0.80;0.80;;;7.50;99.90;;;;;;4429328;32;20057;-68
2022/04/23 03:05:05;;;;;;;0.85;0.85;;;7.50;99.90;;;;;;4430868;32;21450;-68
2022/04/23 03:07:31;;;;;;;0.60;0.60;;;7.50;99.90;;;;;;4433150;32;20065;-68
2022/04/23 03:09:57;;;;;;;0.37;0.37;;;7.50;99.90;;;;;;4427364;32;20073;-67
2022/04/23 03:12:22;;;;;;;1.08;0.80;;;7.50;99.90;;;;;;4428672;32;20089;-68
2022/04/23 03:14:48;;;;;;;0.90;0.85;;;7.50;99.90;;;;;;4432010;32;20065;-69
2022/04/23 03:17:13;;;;;;;1.05;0.88;;;7.50;99.90;;;;;;4431503;32;20049;-68
2022/04/23 03:19:39;;;;;;;1.00;0.73;;;7.50;99.90;;;;;;4430772;32;20073;-68
2022/04/23 03:22:04;;;;;;;0.57;0.57;;;7.40;99.90;;;;;;4431823;32;20098;-68
2022/04/23 03:24:30;;;;;;;0.77;0.77;;;7.40;99.90;;;;;;4431069;32;20124;-68
2022/04/23 03:26:55;;;;;;;0.55;0.55;;;7.40;99.90;;;;;;4430360;32;20065;-68
2022/04/23 03:29:21;;;;;;;0.98;0.75;;;7.50;99.90;;;;;;4429960;32;20089;-68
2022/04/23 03:31:50;;;;;;;0.75;0.75;;;7.50;99.90;;;;;;4427564;32;20649;-68
2022/04/23 03:34:16;;;;;;;1.75;1.30;;;7.50;99.90;;;;;;4430578;32;20093;-68
2022/04/23 03:36:41;;;;;;;1.17;0.82;;;7.50;99.90;;;;;;4430912;32;20651;-68
2022/04/23 03:39:07;;;;;;;0.80;0.80;;;7.40;99.90;;;;;;4427893;32;20077;-68
2022/04/23 03:41:34;;;;;;;0.88;0.80;;;7.40;99.90;;;;;;4432754;32;20594;-68
2022/04/23 03:44:00;;;;;;;2.85;1.12;;;7.30;99.90;;;;;;4427572;32;20090;-68
2022/04/23 03:46:25;;;;;;;6.22;1.75;;;7.30;99.90;;;;;;4429096;32;20053;-68
2022/04/23 03:48:51;;;;;;;0.50;0.50;;;7.30;99.90;;;;;;4431837;32;20080;-70
2022/04/23 03:51:16;;;;;;;0.52;0.52;;;7.30;99.90;;;;;;4429764;32;20073;-68
2022/04/23 03:53:42;;;;;;;0.75;0.57;;;7.30;99.90;;;;;;4430013;32;20207;-68
2022/04/23 03:56:09;;;;;;;0.52;0.52;;;7.30;99.90;;;;;;4431758;32;20077;-68
2022/04/23 03:58:35;;;;;;;0.70;0.70;;;7.30;99.90;;;;;;4429665;32;20147;-68
2022/04/23 04:01:01;;;;;;;0.85;0.85;;;7.30;99.90;;;;;;4427196;32;20520;-68
2022/04/23 04:03:27;;;;;;;0.70;0.60;;;7.30;99.90;;;;;;4432234;32;20089;-68
2022/04/23 04:05:53;;;;;;;0.73;0.70;;;7.20;99.90;;;;;;4428642;32;20104;-67
2022/04/23 04:08:19;;;;;;;0.68;0.68;;;7.20;99.90;;;;;;4428839;32;20085;-67
2022/04/23 04:10:44;;;;;;;5.97;0.80;;;7.20;99.90;;;;;;4428676;32;20049;-67
2022/04/23 04:13:10;;;;;;;1.42;1.33;;;7.20;99.90;;;;;;4431272;32;20564;-67
2022/04/23 04:15:36;;;;;;;2.12;1.20;;;7.20;99.90;;;;;;4427447;32;20108;-67
2022/04/23 04:18:02;;;;;;;0.70;0.45;;;7.30;99.90;;;;;;4431017;32;20068;-67
2022/04/23 04:20:29;;;;;;;1.98;1.48;;;7.20;99.90;;;;;;4429515;32;20132;-69
2022/04/23 04:22:55;;;;;;;0.70;0.70;;;7.20;99.90;;;;;;4429467;32;20235;-68
2022/04/23 04:25:20;;;;;;;1.73;0.88;;;7.20;99.90;;;;;;4430244;32;20104;-68
2022/04/23 04:27:46;;;;;;;1.70;1.12;;;7.20;99.90;;;;;;4429072;32;20120;-68
2022/04/23 04:30:12;;;;;;;0.82;0.60;;;7.20;99.90;;;;;;4429970;32;20365;-68
2022/04/23 04:32:38;;;;;;;0.80;0.62;;;7.20;99.90;;;;;;4425474;32;20439;-68
2022/04/23 04:35:04;;;;;;;1.33;1.17;;;7.30;99.90;;;;;;4428353;32;20128;-68
2022/04/23 04:37:30;;;;;;;0.75;0.75;;;7.20;99.90;;;;;;4426687;32;20073;-68
2022/04/23 04:39:55;;;;;;;1.37;0.70;;;7.30;99.90;;;;;;4427025;32;20123;-68
2022/04/23 04:42:21;;;;;;;0.73;0.73;;;7.30;99.90;;;;;;4431413;32;20593;-68
2022/04/23 04:44:47;;;;;;;0.65;0.65;;;7.40;99.90;;;;;;4429385;32;20073;-68
2022/04/23 04:47:12;;;;;;;5.35;0.93;;;7.40;99.90;;;;;;4429721;32;20088;-67
2022/04/23 04:49:39;;;;;;;0.77;0.73;;;7.50;99.90;;;;;;4431409;32;20057;-68
2022/04/23 04:52:05;;;;;;;0.93;0.88;;;7.50;99.90;;;;;;4427241;32;20081;-68
2022/04/23 04:54:30;;;;;;;0.70;0.68;;;7.50;99.90;;;;;;4427596;32;20525;-68
2022/04/23 04:56:56;;;;;;;0.82;0.82;;;7.50;99.90;;;;;;4427942;32;20086;-68
2022/04/23 04:59:22;;;;;;;0.47;0.47;;;7.50;99.90;;;;;;4428672;32;20165;-68
2022/04/23 05:01:48;;;;;;;0.50;0.50;;;7.60;99.90;;;;;;4429748;32;20062;-68
2022/04/23 05:04:15;;;;;;;1.05;0.95;;;7.70;99.90;;;;;;4429149;32;20065;-67
2022/04/23 05:06:40;;;;;;;0.85;0.80;;;7.70;99.90;;;;;;4429557;32;20073;-68
2022/04/23 05:09:06;;;;;;;3.08;1.23;;;7.70;99.90;;;;;;4427110;32;20062;-68
2022/04/23 05:11:31;;;;;;;0.77;0.65;;;7.70;99.90;;;;;;4430620;32;20126;-67
2022/04/23 05:13:56;;;;;;;1.65;0.85;;;7.80;99.90;;;;;;4428542;32;20065;-68
2022/04/23 05:16:22;;;;;;;0.60;0.60;;;7.80;99.90;;;;;;4429491;32;20084;-68
2022/04/23 05:18:47;;;;;;;1.10;0.75;;;7.80;99.90;;;;;;4430010;32;20081;-68
2022/04/23 05:21:13;;;;;;;0.50;0.50;;;7.90;99.90;;;;;;4428776;32;20088;-68
2022/04/23 05:23:38;;;;;;;0.40;0.40;;;7.90;99.90;;;;;;4427615;32;20074;-68
2022/04/23 05:26:04;;;;;;;0.77;0.73;;;8.00;99.90;;;;;;4429914;32;20069;-68
2022/04/23 05:28:30;;;;;;;2.92;1.25;;;8.10;99.90;;;;;;4432100;32;20230;-68
2022/04/23 05:30:56;;;;;;;0.40;0.40;;;8.10;99.90;;;;;;4426717;32;20073;-68
2022/04/23 05:33:22;;;;;;;0.93;0.90;;;8.20;99.90;;;;;;4424986;32;20053;-68
2022/04/23 05:35:48;;;;;;;1.15;1.05;;;8.30;99.90;;;;;;4429541;32;20092;-68
2022/04/23 05:38:13;;;;;;;0.60;0.60;;;8.30;99.90;;;;;;4425557;32;20073;-68
2022/04/23 05:40:39;;;;;;;0.85;0.75;;;8.30;99.90;;;;;;4430174;32;20085;-68
2022/04/23 05:43:05;;;;;;;0.80;0.80;;;8.40;99.90;;;;;;4429801;32;20112;-68
2022/04/23 05:45:30;;;;;;;5.70;0.77;;;8.50;99.90;;;;;;4427534;32;20065;-68
2022/04/23 05:47:57;;;;;;;1.98;1.12;;;8.50;99.90;;;;;;4430346;32;20083;-68
2022/04/23 05:50:23;;;;;;;1.12;1.02;;;8.60;99.90;;;;;;4433088;32;20089;-68
2022/04/23 05:52:49;;;;;;;1.00;0.85;;;8.70;99.90;;;;;;4431152;32;20064;-68
2022/04/23 05:55:14;;;;;;;0.62;0.62;;;8.70;99.90;;;;;;4428198;32;20505;-68
2022/04/23 05:57:40;;;;;;;5.37;1.60;;;8.80;99.90;;;;;;4426095;32;20117;-68
2022/04/23 06:00:08;;;;;;;1.58;0.88;;;8.80;99.90;;;;;;4426823;32;20086;-68
2022/04/23 06:02:34;;;;;;;0.93;0.93;;;8.80;99.90;;;;;;4429246;32;20073;-67
2022/04/23 06:05:00;;;;;;;2.17;1.10;;;8.90;99.90;;;;;;4428804;32;20081;-68
2022/04/23 06:07:25;;;;;;;1.20;1.10;;;9.00;99.90;;;;;;4426417;32;20409;-68
2022/04/23 06:09:52;;;;;;;6.78;1.00;;;9.00;99.90;;;;;;4428684;32;20093;-68
2022/04/23 06:12:17;;;;;;;1.90;0.88;;;9.10;99.90;;;;;;4427619;32;20073;-69
2022/04/23 06:14:44;;;;;;;1.23;1.02;;;9.20;99.90;;;;;;4428866;32;20061;-69
2022/04/23 06:17:11;;;;;;;0.88;0.88;;;9.30;99.90;;;;;;4429996;32;20057;-69
2022/04/23 06:19:39;;;;;;;1.12;0.88;;;9.30;99.90;;;;;;4428943;32;20061;-69
2022/04/23 06:22:05;;;;;;;0.52;0.50;;;9.50;99.90;;;;;;4427473;32;20360;-69
2022/04/23 06:24:31;;;;;;;1.75;1.35;;;9.50;99.90;;;;;;4430918;32;20185;-69
2022/04/23 06:26:57;;;;;;;0.70;0.70;;;9.50;99.90;;;;;;4430224;32;20078;-69
2022/04/23 06:29:22;;;;;;;1.40;0.90;;;9.50;99.90;;;;;;4431178;32;20536;-69
2022/04/23 06:31:48;;;;;;;0.60;0.60;;;9.70;99.90;;;;;;4429360;32;20119;-69
2022/04/23 06:34:13;;;;;;;1.23;1.00;;;9.70;99.90;;;;;;4427258;32;20492;-67
2022/04/23 06:36:40;;;;;;;0.60;0.60;;;9.90;99.90;;;;;;4430002;32;20061;-67
2022/04/23 06:39:05;;;;;;;1.15;0.68;;;10.00;99.90;;;;;;4431118;32;20081;-70
2022/04/23 06:41:31;;;;;;;1.37;0.55;;;10.10;99.90;;;;;;4430802;32;20172;-69
2022/04/23 06:43:56;;;;;;;0.57;0.55;;;10.20;99.90;;;;;;4430895;32;20541;-69
2022/04/23 06:46:22;;;;;;;0.75;0.70;;;10.30;99.90;;;;;;4435449;32;20078;-69
2022/04/23 06:48:48;;;;;;;0.50;0.50;;;10.40;99.90;;;;;;4429437;32;20081;-69
2022/04/23 06:51:13;;;;;;;0.57;0.57;;;10.50;99.90;;;;;;4431615;32;20537;-68
2022/04/23 06:53:39;;;;;;;1.83;1.10;;;10.50;99.90;;;;;;4430767;32;20089;-68
2022/04/23 06:56:04;;;;;;;0.80;0.80;;;10.60;99.90;;;;;;4431280;32;20061;-68
2022/04/23 06:58:30;;;;;;;27.85;1.90;;;10.70;99.90;;;;;;4430959;32;20108;-68
2022/04/23 07:00:56;;;;;;;1.35;1.20;;;10.80;99.90;;;;;;4430067;32;20065;-68
2022/04/23 07:03:22;;;;;;;0.52;0.52;;;10.80;99.90;;;;;;4433119;32;20069;-68
2022/04/23 07:05:47;;;;;;;0.85;0.70;;;10.90;99.90;;;;;;4431035;32;20134;-68
2022/04/23 07:08:13;;;;;;;0.68;0.68;;;11.00;99.90;;;;;;4428247;32;20093;-68
2022/04/23 07:10:38;;;;;;;0.77;0.70;;;11.10;99.90;;;;;;4429979;32;20120;-68
2022/04/23 07:13:04;;;;;;;2.00;0.52;;;11.20;99.90;;;;;;4428730;32;20476;-68
2022/04/23 07:15:31;;;;;;;10.05;0.60;;;11.30;99.90;;;;;;4431221;32;20057;-68
2022/04/23 07:17:58;;;;;;;0.60;0.60;;;11.40;99.90;;;;;;4430680;32;20078;-69
2022/04/23 07:20:24;;;;;;;0.70;0.70;;;11.50;99.90;;;;;;4430261;32;20471;-68
2022/04/23 07:24:07;;;;;;;5.43;1.92;;;11.60;99.90;;;;;;4429163;32;20539;-69
2022/04/23 07:25:36;;;;;;;0.50;0.50;;;11.60;99.90;;;;;;4422866;32;20576;-68
2022/04/23 07:28:03;;;;;;;0.35;0.35;;;11.70;99.90;;;;;;4430238;32;20074;-68
2022/04/23 07:30:29;;;;;;;1.27;0.60;;;11.80;99.90;;;;;;4430136;32;20074;-69
2022/04/23 07:32:56;;;;;;;1.85;0.68;;;11.90;99.90;;;;;;4430481;32;20169;-69
2022/04/23 07:37:30;;;;;;;0.50;0.50;;;12.00;99.90;;;;;;4426624;32;84352;-68
2022/04/23 07:38:23;;;;;;;0.45;0.45;;;12.20;99.90;;;;;;4423059;32;20561;-68
2022/04/23 07:40:49;;;;;;;;;;;12.20;99.90;;;;;;4427674;32;20534;-68
2022/04/23 07:43:16;;;;;;;6.95;0.90;;;12.30;99.90;;;;;;4428323;32;19948;-68
2022/04/23 07:45:43;;;;;;;0.50;0.50;;;12.30;99.90;;;;;;4429751;32;20154;-68
2022/04/23 07:48:11;;;;;;;0.60;0.60;;;12.50;99.90;;;;;;4432760;32;20090;-68
2022/04/23 07:50:40;;;;;;;0.40;0.40;;;12.60;99.90;;;;;;4428772;32;20065;-69
2022/04/23 07:53:09;;;;;;;0.62;0.50;;;12.70;99.90;;;;;;4432337;32;20073;-68
2022/04/23 07:55:38;;;;;;;1.10;0.68;;;12.80;99.90;;;;;;4430031;32;20123;-69
2022/04/23 07:58:04;;;;;;;0.60;0.60;;;12.90;99.90;;;;;;4431184;32;20085;-68
2022/04/23 08:00:31;;;;;;;1.23;1.02;;;12.90;99.90;;;;;;4428650;32;20057;-68
2022/04/23 08:02:57;;;;;;;0.50;0.50;;;13.00;99.90;;;;;;4432192;32;20128;-69
2022/04/23 08:05:23;;;;;;;0.50;0.50;;;13.10;99.90;;;;;;4430476;32;20136;-68
2022/04/23 08:07:48;;;;;;;0.75;0.55;;;13.10;99.90;;;;;;4429021;32;20331;-68
2022/04/23 08:10:14;;;;;;;0.75;0.68;;;13.30;99.90;;;;;;4426569;32;20076;-68
2022/04/23 08:12:39;;;;;;;0.50;0.50;;;13.40;99.90;;;;;;4428670;32;20135;-68
2022/04/23 08:15:05;;;;;;;0.40;0.40;;;13.50;99.90;;;;;;4427909;32;20065;-68
2022/04/23 08:17:31;;;;;;;0.50;0.50;;;13.60;99.90;;;;;;4429552;32;20093;-69
2022/04/23 08:19:57;;;;;;;4.05;1.08;;;13.70;99.90;;;;;;4430585;32;20087;-68
2022/04/23 08:22:23;;;;;;;1.00;0.88;;;13.80;99.90;;;;;;4430955;32;20065;-68
2022/04/23 08:24:48;;;;;;;4.43;1.15;;;13.80;99.90;;;;;;4428595;32;20062;-68
2022/04/23 08:27:14;;;;;;;0.70;0.70;;;13.80;99.90;;;;;;4429280;32;20077;-69
2022/04/23 08:30:39;;;;;;;0.82;0.80;;;13.80;99.90;;;;;;4429422;32;20521;-68
2022/04/23 08:32:25;;;;;;;0.50;0.50;;;13.70;99.90;;;;;;4420318;32;20105;-68
2022/04/23 08:34:50;;;;;;;0.75;0.68;;;13.80;99.90;;;;;;4429438;32;20081;-68
2022/04/23 08:37:16;;;;;;;0.50;0.50;;;13.90;99.90;;;;;;4428305;32;20129;-68
2022/04/23 08:39:42;;;;;;;0.40;0.40;;;14.00;99.80;;;;;;4429538;32;20064;-69
2022/04/23 08:42:09;;;;;;;1.48;0.82;;;14.00;99.90;;;;;;4428216;32;20073;-68
2022/04/23 08:44:37;;;;;;;0.40;0.40;;;14.20;99.90;;;;;;4429087;32;20143;-68
2022/04/23 08:47:04;;;;;;;0.85;0.85;;;14.10;99.70;;;;;;4433122;32;20097;-68
2022/04/23 08:49:32;;;;;;;0.90;0.80;;;14.20;99.90;;;;;;4432781;32;20073;-68
2022/04/23 08:52:23;;;;;;;1.42;0.60;;;14.30;99.30;;;;;;4435519;32;20084;-68
2022/04/23 08:54:50;;;;;;;;;;;14.40;99.70;;;;;;4434822;32;20068;-68
2022/04/23 08:57:15;;;;;;;0.60;0.60;;;14.50;99.50;;;;;;4429429;32;19951;-68
2022/04/23 08:59:44;;;;;;;0.40;0.40;;;14.60;99.30;;;;;;4429880;32;20248;-68
2022/04/23 09:02:13;;;;;;;0.50;0.50;;;14.70;98.40;;;;;;4427682;32;20054;-68
2022/04/23 09:04:40;;;;;;;12.23;0.82;;;14.80;99.10;;;;;;4431249;32;20057;-68
2022/04/23 09:07:17;;;;;;;0.52;0.52;;;15.10;98.90;;;;;;4429710;32;20061;-69
2022/04/23 09:09:48;;;;;;;0.60;0.60;;;15.40;98.30;;;;;;4426306;32;20065;-69
2022/04/23 09:12:13;;;;;;;1.55;0.68;;;15.50;97.20;;;;;;4428437;32;20090;-69
2022/04/23 09:14:39;;;;;;;0.62;0.60;;;15.70;96.70;;;;;;4430020;32;20057;-68
2022/04/23 09:23:41;;;;;;;0.65;0.65;;;15.80;96.30;;;;;;4425573;32;20143;-68
2022/04/23 09:25:40;;;;;;;11.70;1.12;;;15.80;94.80;;;;;;4421557;32;20520;-68
2022/04/23 09:28:27;;;;;;;0.85;0.80;;;15.70;95.40;;;;;;4427799;32;20069;-68
2022/04/23 09:30:54;;;;;;;1.55;0.95;;;15.90;94.80;;;;;;4421579;32;20602;-68
2022/04/23 09:33:27;;;;;;;1.20;0.73;;;16.40;94.80;;;;;;4426998;32;20081;-68
2022/04/23 09:36:02;;;;;;;1.00;0.98;;;16.60;93.90;;;;;;4426783;32;20317;-69
2022/04/23 09:38:29;;;;;;;0.73;0.73;;;16.70;93.20;;;;;;4427259;32;20127;-68
2022/04/23 09:40:58;;;;;;;0.50;0.50;;;16.60;93.30;;;;;;4427342;32;20135;-68
2022/04/23 09:43:27;;;;;;;0.50;0.50;;;16.80;92.60;;;;;;4427695;32;20422;-68
2022/04/23 09:46:01;;;;;;;0.40;0.40;;;16.90;92.50;;;;;;4432409;32;20073;-68
2022/04/23 09:48:27;;;;;;;0.60;0.60;;;17.10;91.90;;;;;;4430248;32;20405;-68
2022/04/23 09:50:52;;;;;;;0.62;0.62;;;17.00;91.90;;;;;;4428732;32;20469;-68
2022/04/23 09:53:20;;;;;;;0.40;0.40;;;17.10;91.90;;;;;;4427406;32;20358;-68
2022/04/23 09:55:46;;;;;;;0.68;0.68;;;17.00;91.30;;;;;;4429791;32;20194;-68
2022/04/23 09:58:13;;;;;;;0.40;0.40;;;16.90;91.40;;;;;;4432187;32;20625;-69
2022/04/23 10:00:41;;;;;;;0.82;0.80;;;17.00;91.20;;;;;;4432391;32;20153;-68
2022/04/23 10:03:08;;;;;;;0.60;0.60;;;17.60;91.40;;;;;;4433178;32;20196;-68
2022/04/23 10:05:40;;;;;;;1.27;0.62;;;17.80;90.30;;;;;;4432627;32;20200;-68
2022/04/23 10:08:11;;;;;;;0.40;0.40;;;17.90;88.70;;;;;;4432987;32;20528;-68
2022/04/23 10:10:43;;;;;;;1.92;0.82;;;18.00;89.20;;;;;;4431033;32;20081;-68
2022/04/23 10:13:10;;;;;;;0.50;0.50;;;17.90;89.80;;;;;;4431519;32;20057;-68
2022/04/23 10:15:37;;;;;;;0.70;0.55;;;18.20;90.20;;;;;;4432874;32;20090;-68
2022/04/23 10:18:07;;;;;;;0.52;0.52;;;18.60;89.00;;;;;;4431579;32;20118;-68
2022/04/23 10:20:33;;;;;;;0.50;0.50;;;18.60;85.30;;;;;;4430258;32;20069;-68
2022/04/23 10:23:08;;;;;;;0.60;0.60;;;18.90;84.30;;;;;;4430948;32;20119;-68
2022/04/23 10:25:49;;;;;;;1.65;1.10;;;19.10;84.10;;;;;;4432491;32;20090;-68
2022/04/23 10:28:18;;;;;;;0.47;0.47;;;19.00;85.80;;;;;;4429327;32;20081;-68
2022/04/23 10:30:46;;;;;;;0.43;0.43;;;19.40;84.40;;;;;;4430537;32;20085;-68
2022/04/23 10:33:28;;;;;;;0.77;0.50;;;19.30;82.60;;;;;;4431973;32;20069;-68
2022/04/23 10:36:08;;;;;;;0.43;0.43;;;19.70;83.50;;;;;;4428455;32;20069;-68
2022/04/23 10:38:38;;;;;;;0.93;0.60;;;20.20;78.70;;;;;;4432955;32;20073;-68
2022/04/23 10:41:05;;;;;;;0.45;0.45;;;20.00;77.30;;;;;;4429152;32;20094;-68
2022/04/23 10:43:30;;;;;;;0.22;0.22;;;19.70;76.80;;;;;;4431150;32;20086;-68
2022/04/23 10:45:56;;;;;;;0.43;0.43;;;19.60;78.10;;;;;;4430294;32;20547;-68
2022/04/23 10:48:24;;;;;;;0.47;0.47;;;19.20;79.10;;;;;;4431780;32;20595;-68
2022/04/23 10:51:15;;;;;;;0.50;0.50;;;19.10;77.80;;;;;;4432963;32;20073;-68
2022/04/23 10:53:42;;;;;;;0.50;0.50;;;19.50;77.60;;;;;;4423986;32;20461;-68
2022/04/23 10:56:13;;;;;;;0.32;0.32;;;19.90;76.80;;;;;;4430883;32;20489;-68
2022/04/23 10:58:40;;;;;;;3.67;1.33;;;20.40;75.70;;;;;;4431483;32;20097;-68
2022/04/23 11:01:36;;;;;;;0.77;0.45;;;20.60;75.50;;;;;;4433413;32;20170;-68
2022/04/23 11:04:07;;;;;;;0.55;0.55;;;20.80;76.50;;;;;;4428771;32;20402;-68
2022/04/23 11:12:28;;;;;;;0.40;0.40;;;21.90;71.10;;;;;;4428503;32;20081;-68
2022/04/23 11:14:55;;;;;;;0.40;0.40;;;21.80;71.00;;;;;;4430899;32;20084;-68
2022/04/23 11:17:23;;;;;;;0.37;0.37;;;21.90;68.60;;;;;;4431524;32;20516;-68
2022/04/23 11:19:52;;;;;;;0.40;0.40;;;21.00;70.40;;;;;;4428265;32;20081;-68
2022/04/23 11:22:20;;;;;;;0.50;0.50;;;20.80;72.20;;;;;;4429907;32;20093;-68
2022/04/23 11:24:48;;;;;;;4.07;1.65;;;20.00;71.70;;;;;;4425885;32;20077;-68
2022/04/23 11:27:32;;;;;;;0.45;0.40;;;19.70;75.10;;;;;;4428172;32;20431;-68
2022/04/23 11:29:58;;;;;;;1.12;0.70;;;20.30;74.10;;;;;;4429885;32;20610;-68
2022/04/23 11:32:26;;;;;;;0.73;0.68;;;20.80;71.30;;;;;;4428877;32;20148;-68
2022/04/23 11:35:00;;;;;;;0.57;0.57;;;21.20;71.90;;;;;;4430688;32;20069;-68
2022/04/23 11:37:43;;;;;;;1.65;0.70;;;21.70;70.10;;;;;;4430887;32;20081;-68
2022/04/23 11:40:11;;;;;;;1.27;0.43;;;22.20;68.80;;;;;;4423530;32;20603;-68
2022/04/23 11:42:42;;;;;;;0.45;0.45;;;21.90;66.70;;;;;;4428135;32;20100;-68
2022/04/23 11:45:09;;;;;;;0.40;0.40;;;21.80;68.90;;;;;;4431045;32;20064;-67
2022/04/23 11:47:36;;;;;;;0.28;0.28;;;22.20;67.50;;;;;;4429560;32;20085;-68
2022/04/23 11:50:12;;;;;;;0.30;0.30;;;22.50;67.90;;;;;;4431205;32;20093;-68
2022/04/23 11:52:38;;;;;;;0.40;0.40;;;22.20;65.20;;;;;;4429064;32;20184;-68
2022/04/23 11:55:04;;;;;;;0.50;0.50;;;21.60;66.90;;;;;;4432506;32;20197;-68
2022/04/23 11:57:30;;;;;;;0.75;0.57;;;22.00;64.00;;;;;;4432037;32;20097;-68
2022/04/23 12:00:00;;;;;;;0.30;0.30;;;22.60;63.90;;;;;;4431955;32;20423;-69
2022/04/23 12:02:29;;;;;;;1.55;0.50;;;22.90;62.50;;;;;;4427725;32;20476;-68
2022/04/23 12:04:58;;;;;;;0.40;0.40;;;23.30;61.90;;;;;;4430861;32;20438;-68
2022/04/23 12:07:24;;;;;;;0.62;0.40;;;23.40;61.80;;;;;;4430104;32;20077;-68
2022/04/23 12:09:53;;;;;;;0.30;0.30;;;23.50;63.00;;;;;;4426169;32;20061;-67
2022/04/23 12:12:21;;;;;;;0.35;0.35;;;24.00;61.10;;;;;;4426728;32;20569;-66
2022/04/23 12:14:50;;;;;;;0.40;0.40;;;24.10;59.20;;;;;;4432901;32;20073;-69
2022/04/23 12:17:27;;;;;;;0.35;0.35;;;23.00;59.60;;;;;;4430909;32;20434;-69
2022/04/23 12:19:54;;;;;;;0.22;0.22;;;22.20;60.20;;;;;;4431440;32;20066;-68
2022/04/23 12:22:28;;;;;;;0.52;0.52;;;21.90;61.40;;;;;;4432313;32;20070;-68
2022/04/23 12:25:13;;;;;;;0.20;0.20;;;22.50;61.20;;;;;;4428174;32;20073;-68
2022/04/23 12:27:58;;;;;;;0.20;0.20;;;23.20;59.90;;;;;;4425531;32;20077;-69
2022/04/23 12:41:02;;;;;;;0.20;0.20;;;24.50;56.10;;;;;;4423568;32;20086;-68
2022/04/23 12:42:05;;;;;;;0.45;0.45;;;24.30;56.90;;;;;;4423297;32;20074;-68
2022/04/23 12:44:32;;;;;;;0.47;0.47;;;24.90;56.30;;;;;;4431777;32;20128;-68
2022/04/23 12:47:01;;;;;;;0.30;0.30;;;24.80;54.90;;;;;;4426603;32;20085;-69
2022/04/23 12:49:45;;;;;;;0.25;0.25;;;25.40;53.60;;;;;;4429683;32;20084;-69
2022/04/23 12:52:14;;;;;;;0.10;0.10;;;24.90;53.20;;;;;;4432465;32;20499;-69
2022/04/23 12:54:40;;;;;;;0.77;0.52;;;24.20;54.60;;;;;;4427008;32;20085;-68
2022/04/23 12:57:14;;;;;;;0.25;0.25;;;23.70;54.40;;;;;;4428877;32;20058;-68
2022/04/23 12:59:40;;;;;;;0.30;0.30;;;22.70;55.40;;;;;;4430398;32;20089;-69
2022/04/23 13:02:06;;;;;;;0.28;0.28;;;22.70;57.00;;;;;;4430845;32;20085;-68
2022/04/23 13:04:31;;;;;;;0.30;0.30;;;23.40;55.00;;;;;;4432835;32;20430;-68
2022/04/23 13:08:57;;;;;;;0.30;0.30;;;23.30;54.10;;;;;;4427024;32;20061;-69
2022/04/23 13:09:42;;;;;;;0.20;0.20;;;23.80;53.90;;;;;;4427990;32;20140;-69
2022/04/23 13:12:08;;;;;;;0.17;0.17;;;24.20;53.10;;;;;;4425927;32;20164;-68
2022/04/23 13:14:33;;;;;;;0.20;0.20;;;24.20;51.60;;;;;;4427115;32;20069;-69
2022/04/23 13:16:59;;;;;;;0.85;0.50;;;24.50;51.70;;;;;;4430999;32;20116;-69